Time;durP1;ratioP1;P1;durP2;ratioP2;P2;SDS_P1;SDS_P2;PMS_P1;PMS_P2;Temp;Humidity;BMP_temperature;BMP_pressure;BME280_temperature;BME280_humidity;BME280_pressure;Samples;Min_cycle;Max_cycle;Signal;HPM_P1;HPM_P2
2022/10/07 00:01:28;;;;;;;3.83;1.73;;;9.20;99.90;;;;;;4993585;28;20177;-72
2022/10/07 00:03:53;;;;;;;7.00;1.83;;;9.20;99.90;;;;;;4993734;28;20176;-72
2022/10/07 00:06:21;;;;;;;3.50;1.53;;;9.20;99.90;;;;;;4993410;28;20192;-73
2022/10/07 00:08:49;;;;;;;12.03;2.13;;;9.20;99.90;;;;;;4993644;28;20169;-72
2022/10/07 00:11:17;;;;;;;2.93;1.73;;;9.20;99.90;;;;;;4992989;28;20435;-74
2022/10/07 00:13:45;;;;;;;5.03;2.60;;;9.10;99.90;;;;;;4992428;28;20419;-74
2022/10/07 00:16:13;;;;;;;3.00;1.93;;;9.00;99.90;;;;;;4992806;28;20466;-73
2022/10/07 00:18:40;;;;;;;5.60;1.73;;;9.10;99.90;;;;;;4994966;28;20420;-74
2022/10/07 00:21:08;;;;;;;4.10;1.60;;;9.00;99.90;;;;;;5000708;28;20408;-72
2022/10/07 00:23:34;;;;;;;7.07;2.03;;;9.00;99.90;;;;;;5000467;28;20503;-74
2022/10/07 00:26:01;;;;;;;4.53;2.50;;;9.00;99.90;;;;;;4996790;28;20412;-72
2022/10/07 00:28:27;;;;;;;3.13;1.70;;;8.90;99.90;;;;;;4993066;28;20413;-72
2022/10/07 00:31:01;;;;;;;5.43;1.87;;;8.90;99.90;;;;;;4993828;28;20412;-74
2022/10/07 00:33:30;;;;;;;7.03;2.27;;;8.90;99.90;;;;;;4999828;28;20173;-73
2022/10/07 00:35:55;;;;;;;4.40;1.70;;;8.90;99.90;;;;;;4998655;28;20431;-73
2022/10/07 00:38:21;;;;;;;2.93;1.40;;;8.90;99.90;;;;;;4994429;28;20420;-72
2022/10/07 00:40:47;;;;;;;2.10;1.70;;;8.80;99.90;;;;;;4993102;28;20263;-72
2022/10/07 00:43:25;;;;;;;2.60;1.77;;;8.70;99.90;;;;;;4991579;28;20200;-72
2022/10/07 00:45:53;;;;;;;4.70;2.03;;;8.70;99.90;;;;;;4992709;28;20186;-73
2022/10/07 00:48:24;;;;;;;4.57;1.77;;;8.80;99.90;;;;;;4992911;28;20487;-73
2022/10/07 00:50:52;;;;;;;3.87;1.93;;;8.70;99.90;;;;;;4992887;28;20436;-72
2022/10/07 00:53:19;;;;;;;4.57;1.70;;;8.70;99.90;;;;;;4992839;28;20416;-72
2022/10/07 00:55:44;;;;;;;3.13;1.87;;;8.60;99.90;;;;;;4992662;28;20859;-73
2022/10/07 00:58:11;;;;;;;5.97;2.17;;;8.60;99.90;;;;;;4992709;28;20503;-72
2022/10/07 01:00:38;;;;;;;2.77;2.10;;;8.60;99.90;;;;;;4992817;28;20172;-72
2022/10/07 01:03:04;;;;;;;3.20;1.97;;;8.60;99.90;;;;;;4992721;28;20463;-72
2022/10/07 01:05:30;;;;;;;4.87;1.83;;;8.60;99.90;;;;;;4992591;28;20408;-72
2022/10/07 01:07:56;;;;;;;7.20;1.70;;;8.60;99.90;;;;;;4991395;28;20431;-73
2022/10/07 01:10:28;;;;;;;6.00;1.87;;;8.50;99.90;;;;;;4992673;28;20173;-72
2022/10/07 01:13:05;;;;;;;3.50;1.43;;;8.50;99.90;;;;;;4992671;28;20408;-72
2022/10/07 01:15:50;;;;;;;2.30;1.60;;;8.50;99.90;;;;;;4992424;28;20443;-72
2022/10/07 01:18:46;;;;;;;2.77;1.60;;;8.50;99.90;;;;;;4992592;28;20436;-72
2022/10/07 01:21:35;;;;;;;11.23;2.20;;;8.50;99.90;;;;;;4992651;28;20411;-73
2022/10/07 01:24:11;;;;;;;8.40;2.17;;;8.40;99.90;;;;;;4992538;28;20411;-72
2022/10/07 01:26:50;;;;;;;6.50;2.40;;;8.50;99.90;;;;;;4992480;28;20519;-73
2022/10/07 01:29:28;;;;;;;4.20;2.00;;;8.40;99.90;;;;;;4992498;28;20437;-72
2022/10/07 01:32:02;;;;;;;12.73;2.30;;;8.40;99.90;;;;;;4992546;28;20402;-72
2022/10/07 01:34:28;;;;;;;3.17;2.17;;;8.30;99.90;;;;;;4992107;28;21156;-72
2022/10/07 01:36:58;;;;;;;9.83;4.23;;;8.30;99.90;;;;;;4992401;28;20432;-72
2022/10/07 01:39:29;;;;;;;6.00;2.93;;;8.30;99.90;;;;;;4992202;28;20491;-72
2022/10/07 01:41:56;;;;;;;5.10;1.70;;;8.30;99.90;;;;;;4992368;28;20527;-72
2022/10/07 01:44:23;;;;;;;4.70;1.90;;;8.30;99.90;;;;;;4995241;28;20478;-73
2022/10/07 01:46:49;;;;;;;6.90;1.90;;;8.30;99.90;;;;;;4994949;28;20964;-72
2022/10/07 01:49:14;;;;;;;6.63;2.47;;;8.20;99.90;;;;;;4996051;28;20506;-72
2022/10/07 01:51:41;;;;;;;4.07;1.63;;;8.20;99.90;;;;;;4996215;28;20169;-72
2022/10/07 01:54:18;;;;;;;3.53;1.50;;;8.20;99.90;;;;;;4996040;28;20169;-72
2022/10/07 01:56:59;;;;;;;4.67;1.53;;;8.20;99.90;;;;;;4995850;28;20771;-73
2022/10/07 01:59:59;;;;;;;5.53;1.47;;;8.30;99.90;;;;;;4995242;28;20411;-73
2022/10/07 02:02:52;;;;;;;11.97;2.63;;;8.20;99.90;;;;;;4995860;28;20494;-73
2022/10/07 02:05:29;;;;;;;4.13;1.97;;;8.20;99.90;;;;;;4997514;28;20509;-74
2022/10/07 02:08:13;;;;;;;2.67;1.60;;;8.20;99.90;;;;;;4995902;28;20923;-73
2022/10/07 02:11:10;;;;;;;10.30;2.70;;;8.20;99.90;;;;;;4995678;28;20408;-73
2022/10/07 02:13:54;;;;;;;3.07;2.00;;;8.10;99.90;;;;;;4996128;28;20782;-73
2022/10/07 02:16:41;;;;;;;4.20;1.93;;;8.20;99.90;;;;;;4998930;28;20439;-74
2022/10/07 02:19:21;;;;;;;13.73;2.17;;;8.20;99.90;;;;;;4995635;28;20450;-73
2022/10/07 02:21:49;;;;;;;10.43;2.07;;;8.20;99.90;;;;;;4995761;28;20407;-72
2022/10/07 02:24:17;;;;;;;6.30;2.87;;;8.10;99.90;;;;;;4997971;28;20416;-72
2022/10/07 02:26:45;;;;;;;4.83;1.60;;;8.00;99.90;;;;;;5000663;28;20802;-73
2022/10/07 02:29:13;;;;;;;8.97;2.30;;;8.00;99.90;;;;;;4995501;28;20913;-72
2022/10/07 02:31:41;;;;;;;5.33;2.00;;;8.00;99.90;;;;;;4995391;28;20404;-72
2022/10/07 02:34:10;;;;;;;5.73;2.60;;;8.00;99.90;;;;;;4995442;28;20961;-72
2022/10/07 02:36:42;;;;;;;5.10;3.30;;;7.90;99.90;;;;;;4995039;28;20439;-72
2022/10/07 02:39:08;;;;;;;4.13;1.70;;;7.90;99.90;;;;;;4997406;28;20404;-74
2022/10/07 02:41:52;;;;;;;4.70;1.90;;;7.90;99.90;;;;;;4997298;28;20416;-73
2022/10/07 02:44:24;;;;;;;8.00;3.20;;;7.90;99.90;;;;;;4994882;28;20231;-72
2022/10/07 02:47:14;;;;;;;1.73;1.23;;;7.90;99.90;;;;;;5000304;28;20443;-72
2022/10/07 02:49:42;;;;;;;2.63;1.87;;;7.90;99.90;;;;;;4984564;28;20440;-72
2022/10/07 02:52:15;;;;;;;4.97;1.70;;;7.90;99.90;;;;;;4994959;28;20451;-72
2022/10/07 02:54:50;;;;;;;5.53;2.23;;;7.80;99.90;;;;;;4993943;28;20443;-72
2022/10/07 02:57:19;;;;;;;2.90;1.87;;;7.70;99.90;;;;;;4994954;28;20613;-74
2022/10/07 02:59:47;;;;;;;6.93;2.17;;;7.70;99.90;;;;;;5000271;28;20420;-72
2022/10/07 03:02:19;;;;;;;4.50;1.73;;;7.60;99.90;;;;;;4993602;28;20424;-72
2022/10/07 03:04:44;;;;;;;3.80;1.47;;;7.60;99.90;;;;;;4994572;28;20451;-72
2022/10/07 03:07:11;;;;;;;11.63;1.70;;;7.50;99.90;;;;;;4994646;28;20455;-72
2022/10/07 03:09:37;;;;;;;2.30;1.50;;;7.50;99.90;;;;;;4994699;28;20175;-72
2022/10/07 03:12:03;;;;;;;6.10;1.37;;;7.60;99.90;;;;;;4994621;28;20460;-73
2022/10/07 03:14:28;;;;;;;6.60;1.90;;;7.60;99.90;;;;;;4994441;28;20184;-72
2022/10/07 03:16:54;;;;;;;4.70;1.30;;;7.50;99.90;;;;;;4994618;28;20247;-73
2022/10/07 03:19:19;;;;;;;2.80;1.90;;;7.50;99.90;;;;;;4994546;28;20176;-72
2022/10/07 03:21:46;;;;;;;4.30;1.93;;;7.40;99.90;;;;;;4994552;28;20642;-72
2022/10/07 03:24:11;;;;;;;6.80;2.60;;;7.40;99.90;;;;;;4993249;28;20680;-72
2022/10/07 03:26:37;;;;;;;4.43;2.50;;;7.40;99.90;;;;;;4994197;28;20482;-72
2022/10/07 03:29:03;;;;;;;2.90;1.87;;;7.40;99.90;;;;;;4999304;28;20188;-74
2022/10/07 03:31:30;;;;;;;4.43;2.10;;;7.50;99.90;;;;;;4999759;28;20180;-74
2022/10/07 03:33:56;;;;;;;4.57;2.47;;;7.40;99.90;;;;;;5000755;28;20404;-73
2022/10/07 03:36:22;;;;;;;6.67;2.20;;;7.40;99.90;;;;;;4999852;28;20428;-74
2022/10/07 03:38:48;;;;;;;5.83;1.70;;;7.30;99.90;;;;;;5000918;28;20400;-73
2022/10/07 03:41:13;;;;;;;4.80;1.93;;;7.30;99.90;;;;;;5001629;28;20487;-74
2022/10/07 03:43:39;;;;;;;5.90;1.80;;;7.20;99.90;;;;;;4999076;28;20416;-73
2022/10/07 03:46:04;;;;;;;8.13;2.27;;;7.10;99.90;;;;;;5000054;28;20204;-72
2022/10/07 03:48:30;;;;;;;3.93;2.00;;;7.20;99.90;;;;;;5000032;28;20177;-73
2022/10/07 03:50:57;;;;;;;6.07;2.33;;;7.20;99.90;;;;;;4998836;28;20200;-74
2022/10/07 03:53:24;;;;;;;2.07;1.50;;;7.20;99.90;;;;;;4999264;28;20456;-73
2022/10/07 03:55:50;;;;;;;5.80;2.67;;;7.20;99.90;;;;;;4999787;28;20408;-73
2022/10/07 03:58:16;;;;;;;3.33;1.53;;;7.20;99.90;;;;;;4999915;28;20455;-74
2022/10/07 04:00:41;;;;;;;4.23;2.03;;;7.20;99.90;;;;;;4995295;28;20169;-72
2022/10/07 04:03:07;;;;;;;4.10;2.30;;;7.10;99.90;;;;;;4993723;28;20200;-72
2022/10/07 04:05:34;;;;;;;4.17;1.93;;;7.10;99.90;;;;;;4992942;28;20177;-75
2022/10/07 04:07:59;;;;;;;5.73;1.80;;;7.10;99.90;;;;;;4993503;28;20427;-72
2022/10/07 04:10:25;;;;;;;3.23;2.53;;;7.10;99.90;;;;;;4993245;28;20882;-72
2022/10/07 04:12:51;;;;;;;5.03;2.53;;;7.10;99.90;;;;;;4993403;28;20232;-72
2022/10/07 04:15:17;;;;;;;7.27;2.87;;;7.10;99.90;;;;;;4993194;28;20176;-72
2022/10/07 04:17:44;;;;;;;7.63;2.40;;;7.10;99.90;;;;;;4993193;28;20196;-72
2022/10/07 04:20:11;;;;;;;9.80;2.23;;;7.10;99.90;;;;;;4993352;28;20418;-72
2022/10/07 04:22:37;;;;;;;4.53;2.17;;;7.10;99.90;;;;;;4992121;28;20420;-71
2022/10/07 04:27:55;;;;;;;4.43;2.20;;;7.10;99.90;;;;;;4993549;28;20204;-71
2022/10/07 04:30:22;;;;;;;4.63;2.00;;;7.00;99.90;;;;;;4993188;28;20917;-72
2022/10/07 04:32:49;;;;;;;9.80;3.40;;;7.00;99.90;;;;;;4993143;28;20455;-73
2022/10/07 04:35:19;;;;;;;3.53;2.30;;;7.00;99.90;;;;;;4992934;28;20408;-72
2022/10/07 04:37:47;;;;;;;4.67;2.40;;;7.00;99.90;;;;;;4991784;28;20435;-72
2022/10/07 04:40:13;;;;;;;10.00;2.60;;;7.00;99.90;;;;;;4993052;28;20411;-72
2022/10/07 04:45:23;;;;;;;12.20;2.90;;;7.00;99.90;;;;;;4999256;28;20662;-74
2022/10/07 04:47:48;;;;;;;4.00;2.67;;;7.00;99.90;;;;;;4999575;28;20428;-74
2022/10/07 04:50:14;;;;;;;3.60;2.57;;;7.00;99.90;;;;;;4995094;28;20220;-73
2022/10/07 04:52:43;;;;;;;5.70;2.50;;;6.90;99.90;;;;;;4991715;28;20197;-73
2022/10/07 04:55:11;;;;;;;6.50;3.03;;;6.90;99.90;;;;;;4992608;28;20172;-74
2022/10/07 04:57:37;;;;;;;16.73;2.00;;;7.00;99.90;;;;;;4991687;28;20455;-73
2022/10/07 05:00:04;;;;;;;4.07;2.10;;;7.00;99.90;;;;;;4991655;28;20423;-74
2022/10/07 05:02:30;;;;;;;3.10;2.10;;;7.00;99.90;;;;;;4993450;28;20411;-73
2022/10/07 05:04:56;;;;;;;6.97;2.80;;;7.00;99.90;;;;;;4998398;28;20416;-74
2022/10/07 05:07:21;;;;;;;8.13;3.50;;;7.00;99.90;;;;;;4999014;28;20432;-73
2022/10/07 05:09:47;;;;;;;11.03;2.87;;;7.00;99.90;;;;;;5000283;28;20562;-73
2022/10/07 05:12:12;;;;;;;7.63;1.90;;;7.00;99.90;;;;;;4999769;28;20310;-75
2022/10/07 05:14:41;;;;;;;2.33;1.80;;;6.90;99.90;;;;;;4997482;28;20177;-74
2022/10/07 05:17:07;;;;;;;3.63;2.43;;;6.90;99.90;;;;;;4998908;28;20188;-73
2022/10/07 05:19:33;;;;;;;4.93;2.43;;;6.90;99.90;;;;;;4998587;28;20416;-74
2022/10/07 05:21:58;;;;;;;4.80;2.00;;;6.90;99.90;;;;;;4998974;28;20165;-72
2022/10/07 05:24:24;;;;;;;2.27;1.80;;;6.90;99.90;;;;;;4992279;28;20296;-72
2022/10/07 05:26:49;;;;;;;7.40;2.77;;;6.90;99.90;;;;;;4992686;28;20239;-73
2022/10/07 05:29:15;;;;;;;5.17;2.13;;;6.90;99.90;;;;;;4992456;28;20169;-73
2022/10/07 05:31:41;;;;;;;2.60;1.70;;;6.90;99.90;;;;;;4992523;28;20670;-72
2022/10/07 05:34:07;;;;;;;2.53;1.53;;;6.90;99.90;;;;;;4992526;28;20172;-72
2022/10/07 05:36:33;;;;;;;6.00;2.50;;;6.90;99.90;;;;;;4992982;28;20189;-74
2022/10/07 05:38:59;;;;;;;5.03;2.50;;;6.90;99.90;;;;;;4998423;28;20478;-74
2022/10/07 05:41:27;;;;;;;5.00;2.17;;;6.90;99.90;;;;;;4998276;28;20420;-74
2022/10/07 05:43:53;;;;;;;3.80;2.00;;;6.90;99.90;;;;;;4998936;28;20416;-73
2022/10/07 05:46:22;;;;;;;2.90;1.63;;;6.90;99.90;;;;;;4995302;28;20806;-72
2022/10/07 05:48:50;;;;;;;4.43;2.00;;;7.00;99.90;;;;;;4992225;28;20177;-72
2022/10/07 05:51:17;;;;;;;3.63;1.90;;;6.90;99.90;;;;;;4992469;28;20400;-73
2022/10/07 05:53:45;;;;;;;6.63;2.07;;;6.90;99.90;;;;;;4992185;28;20447;-73
2022/10/07 05:56:15;;;;;;;2.43;1.93;;;6.90;99.90;;;;;;4992081;28;20459;-73
2022/10/07 05:58:41;;;;;;;5.83;2.43;;;6.90;99.90;;;;;;4991070;28;20420;-72
2022/10/07 06:01:13;;;;;;;2.90;1.87;;;6.90;99.90;;;;;;4992279;28;20404;-72
2022/10/07 06:03:39;;;;;;;6.13;2.73;;;6.90;99.90;;;;;;4990909;28;20785;-72
2022/10/07 06:06:04;;;;;;;3.73;1.90;;;6.90;99.90;;;;;;4992549;28;20408;-73
2022/10/07 06:08:30;;;;;;;3.97;1.77;;;6.90;99.90;;;;;;4991983;28;20658;-73
2022/10/07 06:13:51;;;;;;;4.17;2.53;;;7.00;99.90;;;;;;4999990;28;20581;-72
2022/10/07 06:16:16;;;;;;;8.10;2.17;;;7.10;99.90;;;;;;4992875;28;20436;-75
2022/10/07 06:18:42;;;;;;;6.30;1.93;;;7.10;99.90;;;;;;4997072;28;20412;-74
2022/10/07 06:21:07;;;;;;;2.60;2.10;;;7.20;99.90;;;;;;4993568;28;20563;-74
2022/10/07 06:23:33;;;;;;;6.57;2.43;;;7.20;99.90;;;;;;4992023;28;20169;-73
2022/10/07 06:26:03;;;;;;;5.97;2.40;;;7.20;99.90;;;;;;4991882;28;20204;-72
2022/10/07 06:28:33;;;;;;;3.57;2.10;;;7.30;99.90;;;;;;4991932;28;20177;-72
2022/10/07 06:31:06;;;;;;;3.23;2.07;;;7.30;99.90;;;;;;4994126;28;20412;-73
2022/10/07 06:33:32;;;;;;;6.70;2.20;;;7.40;99.90;;;;;;4995514;28;20463;-73
2022/10/07 06:36:01;;;;;;;11.57;4.50;;;7.40;99.90;;;;;;4995109;28;20883;-73
2022/10/07 06:38:27;;;;;;;5.87;2.90;;;7.50;99.90;;;;;;4995419;28;20400;-73
2022/10/07 06:41:00;;;;;;;7.83;2.93;;;7.60;99.90;;;;;;4995504;28;20408;-73
2022/10/07 06:43:26;;;;;;;7.03;4.03;;;7.70;99.90;;;;;;4995457;28;20523;-74
2022/10/07 06:45:52;;;;;;;3.00;2.67;;;7.70;99.90;;;;;;4995224;28;20924;-74
2022/10/07 06:48:17;;;;;;;5.33;2.50;;;7.80;99.90;;;;;;4996053;28;20423;-74
2022/10/07 06:50:53;;;;;;;3.60;2.53;;;7.90;99.90;;;;;;4998116;28;20274;-72
2022/10/07 06:53:19;;;;;;;6.90;3.13;;;7.90;99.90;;;;;;4998208;28;20824;-74
2022/10/07 06:55:44;;;;;;;3.30;2.27;;;8.00;99.90;;;;;;4998573;28;20488;-74
2022/10/07 06:58:11;;;;;;;7.17;2.70;;;8.10;99.90;;;;;;4997235;28;20531;-73
2022/10/07 07:00:37;;;;;;;6.07;2.77;;;8.20;99.90;;;;;;4996619;28;20173;-74
2022/10/07 07:03:02;;;;;;;8.33;2.80;;;8.20;99.90;;;;;;4998106;28;20427;-74
2022/10/07 07:05:34;;;;;;;9.90;3.00;;;8.30;99.90;;;;;;4997460;28;20419;-73
2022/10/07 07:08:00;;;;;;;5.73;2.57;;;8.50;99.90;;;;;;4996161;28;20193;-73
2022/10/07 07:10:26;;;;;;;7.40;2.40;;;8.50;99.90;;;;;;4997250;28;20934;-74
2022/10/07 07:12:53;;;;;;;9.23;2.83;;;8.60;99.90;;;;;;4994212;28;20196;-73
2022/10/07 07:15:18;;;;;;;3.53;2.30;;;8.80;99.90;;;;;;4994492;28;20404;-73
2022/10/07 07:17:44;;;;;;;6.37;2.40;;;8.90;99.90;;;;;;4994813;28;20540;-74
2022/10/07 07:20:09;;;;;;;4.13;2.37;;;9.00;99.90;;;;;;4994805;28;20173;-73
2022/10/07 07:22:35;;;;;;;12.03;3.47;;;9.10;99.90;;;;;;4994903;28;20546;-73
2022/10/07 07:25:01;;;;;;;7.60;2.37;;;9.30;99.90;;;;;;4994330;28;20254;-74
2022/10/07 07:27:26;;;;;;;5.20;2.80;;;9.50;99.90;;;;;;4993285;28;20224;-74
2022/10/07 07:29:52;;;;;;;12.80;3.57;;;9.60;99.90;;;;;;4994617;28;20533;-73
2022/10/07 07:32:17;;;;;;;5.67;2.10;;;9.70;99.90;;;;;;4995872;28;20252;-73
2022/10/07 07:34:43;;;;;;;8.97;3.00;;;9.80;99.90;;;;;;4995751;28;20171;-73
2022/10/07 07:37:08;;;;;;;6.87;2.60;;;9.90;99.90;;;;;;4995473;28;20200;-74
2022/10/07 07:39:34;;;;;;;7.07;3.13;;;10.00;99.90;;;;;;4996273;28;20713;-74
2022/10/07 07:41:59;;;;;;;3.70;2.43;;;10.20;99.90;;;;;;4995478;28;20179;-74
2022/10/07 07:44:26;;;;;;;4.80;2.20;;;10.50;99.90;;;;;;4995102;28;20216;-74
2022/10/07 07:46:51;;;;;;;5.67;2.17;;;10.70;99.90;;;;;;4993371;28;20200;-72
2022/10/07 07:49:18;;;;;;;6.80;2.03;;;10.90;99.90;;;;;;4992709;28;20436;-72
2022/10/07 07:51:44;;;;;;;6.53;1.90;;;11.00;99.90;;;;;;4993917;28;20192;-72
2022/10/07 07:54:11;;;;;;;3.97;1.63;;;11.30;99.90;;;;;;4993898;28;20435;-72
2022/10/07 07:56:40;;;;;;;6.87;2.20;;;11.50;99.90;;;;;;4993674;28;20980;-73
2022/10/07 07:59:07;;;;;;;6.20;2.33;;;11.70;99.90;;;;;;4993891;28;20570;-71
2022/10/07 08:01:34;;;;;;;6.00;1.83;;;11.80;99.90;;;;;;4993913;28;20925;-73
2022/10/07 08:04:00;;;;;;;7.30;2.03;;;12.00;99.90;;;;;;4993807;28;20523;-72
2022/10/07 08:06:27;;;;;;;2.90;1.63;;;12.30;99.90;;;;;;4993369;28;20490;-72
2022/10/07 08:08:57;;;;;;;4.57;1.97;;;12.70;99.90;;;;;;4993870;28;20415;-73
2022/10/07 08:11:23;;;;;;;5.83;2.30;;;13.10;99.90;;;;;;4993693;28;20404;-71
2022/10/07 08:13:48;;;;;;;6.00;1.90;;;13.70;99.90;;;;;;4993599;28;20460;-72
2022/10/07 08:16:19;;;;;;;3.10;1.83;;;14.70;99.90;;;;;;4993204;28;20408;-73
2022/10/07 08:18:47;;;;;;;3.60;1.63;;;15.90;99.90;;;;;;4993597;28;20165;-73
2022/10/07 08:21:14;;;;;;;4.30;1.57;;;17.40;99.90;;;;;;4993567;28;20974;-72
2022/10/07 08:23:40;;;;;;;3.00;1.40;;;18.60;99.90;;;;;;4993556;28;20547;-74
2022/10/07 08:26:07;;;;;;;6.80;1.57;;;19.40;99.90;;;;;;4991848;28;20507;-72
2022/10/07 08:28:33;;;;;;;3.73;1.77;;;20.40;99.90;;;;;;4993748;28;20169;-73
2022/10/07 08:31:07;;;;;;;2.63;1.50;;;21.20;96.00;;;;;;4994048;28;20440;-72
2022/10/07 08:33:35;;;;;;;3.67;2.00;;;22.00;89.60;;;;;;4994236;28;20554;-74
2022/10/07 08:36:03;;;;;;;4.00;1.93;;;22.80;84.40;;;;;;4993785;28;20400;-74
2022/10/07 08:38:33;;;;;;;4.40;2.57;;;23.60;78.50;;;;;;4993574;28;21104;-74
2022/10/07 08:41:21;;;;;;;3.37;1.73;;;24.30;76.30;;;;;;4993151;28;20404;-73
2022/10/07 08:43:50;;;;;;;5.93;3.17;;;24.40;68.00;;;;;;4993189;28;20853;-73
2022/10/07 08:46:25;;;;;;;8.53;2.70;;;25.20;66.10;;;;;;4993193;28;20423;-76
2022/10/07 08:48:58;;;;;;;3.20;2.00;;;26.10;62.80;;;;;;4993075;28;20408;-72
2022/10/07 08:51:37;;;;;;;7.90;2.93;;;26.90;58.10;;;;;;4993371;28;20897;-73
2022/10/07 08:54:03;;;;;;;8.00;2.70;;;26.60;56.40;;;;;;4990929;28;20463;-73
2022/10/07 08:56:31;;;;;;;7.70;2.30;;;27.10;56.60;;;;;;4992633;28;20452;-72
2022/10/07 08:59:04;;;;;;;5.83;2.30;;;26.80;55.70;;;;;;4992566;28;20495;-73
2022/10/07 09:01:46;;;;;;;6.13;2.30;;;27.30;56.40;;;;;;4993275;28;20882;-74
2022/10/07 09:04:36;;;;;;;5.23;1.73;;;27.40;55.70;;;;;;4993241;28;20404;-74
2022/10/07 09:07:03;;;;;;;9.63;3.23;;;27.80;53.20;;;;;;4992935;28;20474;-74
2022/10/07 09:09:45;;;;;;;7.20;2.00;;;28.20;51.60;;;;;;4993073;28;20496;-72
2022/10/07 09:12:21;;;;;;;2.67;1.80;;;28.20;50.40;;;;;;4991852;28;20879;-72
2022/10/07 09:14:50;;;;;;;4.97;2.03;;;29.30;50.80;;;;;;4992676;28;20414;-73
2022/10/07 09:17:42;;;;;;;3.23;1.33;;;29.80;48.90;;;;;;4992642;28;20511;-71
2022/10/07 09:20:16;;;;;;;3.83;1.60;;;30.40;46.60;;;;;;4993223;28;20408;-74
2022/10/07 09:22:49;;;;;;;3.33;1.47;;;31.20;46.70;;;;;;4993194;28;20408;-74
2022/10/07 09:25:20;;;;;;;2.80;1.60;;;31.90;45.20;;;;;;4993567;28;20404;-73
2022/10/07 09:27:47;;;;;;;3.03;1.67;;;32.10;43.80;;;;;;4992905;28;20435;-73
2022/10/07 09:30:14;;;;;;;3.67;1.70;;;32.50;44.60;;;;;;4992458;28;20440;-72
2022/10/07 09:32:46;;;;;;;2.70;1.50;;;33.30;42.80;;;;;;4992686;28;20459;-74
2022/10/07 09:35:23;;;;;;;2.30;1.50;;;33.50;41.80;;;;;;4992782;28;20821;-73
2022/10/07 09:38:08;;;;;;;2.80;1.57;;;33.40;41.40;;;;;;4993234;28;20423;-74
2022/10/07 09:41:14;;;;;;;1.60;1.40;;;33.60;40.70;;;;;;4992865;28;20404;-72
2022/10/07 09:43:29;;;;;;;7.17;1.80;;;34.10;39.40;;;;;;4992389;28;20486;-73
2022/10/07 09:45:56;;;;;;;8.60;1.80;;;33.60;38.50;;;;;;4992077;28;20416;-73
2022/10/07 09:48:26;;;;;;;2.10;1.40;;;33.50;39.30;;;;;;4992234;28;20432;-72
2022/10/07 09:51:14;;;;;;;4.07;2.10;;;33.50;40.20;;;;;;4992372;28;20455;-72
2022/10/07 09:54:02;;;;;;;3.43;1.70;;;33.80;39.60;;;;;;4992098;28;20418;-72
2022/10/07 09:56:39;;;;;;;8.13;1.93;;;34.50;39.70;;;;;;4992017;28;20775;-72
2022/10/07 09:59:30;;;;;;;4.70;1.70;;;35.20;38.60;;;;;;4992277;28;20431;-73
2022/10/07 10:02:15;;;;;;;3.70;1.27;;;35.30;36.80;;;;;;4990875;28;20781;-73
2022/10/07 10:04:51;;;;;;;2.73;1.40;;;34.50;37.10;;;;;;4993957;28;20395;-73
2022/10/07 10:07:21;;;;;;;5.47;2.13;;;34.50;37.30;;;;;;4995951;28;20789;-73
2022/10/07 10:09:51;;;;;;;5.07;2.33;;;34.50;37.50;;;;;;4995950;28;20407;-72
2022/10/07 10:12:19;;;;;;;4.57;1.93;;;34.50;37.90;;;;;;4995850;28;20492;-73
2022/10/07 10:14:46;;;;;;;2.70;1.50;;;35.30;37.60;;;;;;4995611;28;20400;-73
2022/10/07 10:17:35;;;;;;;2.73;1.70;;;36.30;37.30;;;;;;4995862;28;20427;-72
2022/10/07 10:20:22;;;;;;;3.87;2.30;;;36.90;36.20;;;;;;4990591;28;20900;-73
2022/10/07 10:22:48;;;;;;;8.90;2.30;;;36.90;35.60;;;;;;4994898;28;20494;-73
2022/10/07 10:28:06;;;;;;;3.50;1.90;;;35.80;35.80;;;;;;4995612;28;20255;-73
2022/10/07 10:30:35;;;;;;;5.10;2.83;;;35.70;36.20;;;;;;4995672;28;20375;-73
2022/10/07 10:33:16;;;;;;;5.57;3.70;;;35.70;35.40;;;;;;4994215;28;20412;-73
2022/10/07 10:36:09;;;;;;;3.93;1.50;;;34.90;35.00;;;;;;4990903;28;20425;-73
2022/10/07 10:38:38;;;;;;;3.70;1.83;;;33.70;37.20;;;;;;4986724;28;20462;-73
2022/10/07 10:41:14;;;;;;;6.30;1.97;;;33.70;37.10;;;;;;4995306;28;20924;-73
2022/10/07 10:43:59;;;;;;;3.83;1.50;;;34.40;37.90;;;;;;4994045;28;20463;-73
2022/10/07 10:46:47;;;;;;;2.50;1.57;;;35.70;37.00;;;;;;4981956;28;20547;-73
2022/10/07 10:49:41;;;;;;;4.80;1.60;;;37.10;36.40;;;;;;4994087;28;20494;-73
2022/10/07 10:52:16;;;;;;;10.17;2.10;;;38.20;34.70;;;;;;4986984;28;20447;-73
2022/10/07 10:54:45;;;;;;;6.03;2.07;;;39.10;33.90;;;;;;4994797;28;20407;-72
2022/10/07 10:57:51;;;;;;;3.57;1.40;;;39.20;32.10;;;;;;4995118;28;21042;-71
2022/10/07 11:00:19;;;;;;;4.13;2.40;;;40.10;31.70;;;;;;4966101;28;20391;-71
2022/10/07 11:03:12;;;;;;;7.23;2.00;;;39.70;30.00;;;;;;4980286;28;20489;-71
2022/10/07 11:05:39;;;;;;;3.77;1.83;;;39.20;30.60;;;;;;4994544;28;20412;-71
2022/10/07 11:08:11;;;;;;;4.23;2.07;;;38.80;32.30;;;;;;4994719;28;20446;-72
2022/10/07 11:10:46;;;;;;;3.53;1.80;;;39.70;32.10;;;;;;4994836;28;20404;-71
2022/10/07 11:13:23;;;;;;;3.90;1.90;;;40.20;30.40;;;;;;4990569;28;20750;-71
2022/10/07 11:16:11;;;;;;;3.00;1.87;;;40.80;31.50;;;;;;4993576;28;20458;-71
2022/10/07 11:18:45;;;;;;;14.60;2.73;;;41.40;30.20;;;;;;4992338;28;20414;-71
2022/10/07 11:21:19;;;;;;;3.37;1.93;;;41.50;29.30;;;;;;4986976;28;20431;-72
2022/10/07 11:23:52;;;;;;;4.60;2.37;;;41.80;29.20;;;;;;4993712;28;20526;-72
2022/10/07 11:26:27;;;;;;;4.80;2.13;;;42.00;29.80;;;;;;4990698;28;20509;-72
2022/10/07 11:28:54;;;;;;;3.00;1.90;;;41.90;28.60;;;;;;4993732;28;20407;-72
2022/10/07 11:31:34;;;;;;;2.90;1.80;;;41.60;28.20;;;;;;4994318;28;20395;-73
2022/10/07 11:34:27;;;;;;;5.93;2.47;;;40.20;28.50;;;;;;4975122;28;20387;-71
2022/10/07 11:37:14;;;;;;;5.77;2.57;;;39.30;29.50;;;;;;4989816;28;20587;-71
2022/10/07 11:39:40;;;;;;;6.80;2.00;;;39.60;30.10;;;;;;4986701;28;20409;-73
2022/10/07 11:42:17;;;;;;;4.93;2.10;;;40.10;30.00;;;;;;4993018;28;20455;-73
2022/10/07 11:45:06;;;;;;;3.53;2.13;;;40.90;29.90;;;;;;4992736;28;20176;-73
2022/10/07 11:47:44;;;;;;;5.37;1.83;;;41.00;28.50;;;;;;4994707;28;20420;-72
2022/10/07 11:50:18;;;;;;;5.00;1.60;;;41.30;28.60;;;;;;4993112;28;20435;-72
2022/10/07 11:52:47;;;;;;;3.00;1.63;;;41.20;28.50;;;;;;4994338;28;20430;-73
2022/10/07 11:55:25;;;;;;;5.83;2.63;;;41.60;27.70;;;;;;4993772;28;20436;-73
2022/10/07 11:57:59;;;;;;;2.50;1.80;;;41.50;28.40;;;;;;4993832;28;20932;-71
2022/10/07 12:00:34;;;;;;;4.70;2.00;;;41.90;28.80;;;;;;4993825;28;20818;-72
2022/10/07 12:03:32;;;;;;;3.20;1.90;;;42.70;28.70;;;;;;4993833;28;20451;-71
2022/10/07 12:06:10;;;;;;;5.50;2.30;;;42.90;27.60;;;;;;4990440;28;20760;-73
2022/10/07 12:08:41;;;;;;;2.30;1.57;;;42.20;27.60;;;;;;4993901;28;20491;-73
2022/10/07 12:11:13;;;;;;;3.70;1.80;;;42.30;27.00;;;;;;4992459;28;20449;-72
2022/10/07 12:13:45;;;;;;;3.03;1.73;;;41.90;27.80;;;;;;4993660;28;20963;-72
2022/10/07 12:16:33;;;;;;;8.40;2.80;;;41.00;27.40;;;;;;4993179;28;20409;-71
2022/10/07 12:19:09;;;;;;;4.43;1.90;;;40.20;27.40;;;;;;4993446;28;20412;-71
2022/10/07 12:21:58;;;;;;;4.90;3.73;;;40.30;28.60;;;;;;4993634;28;20413;-73
2022/10/07 12:24:24;;;;;;;5.90;5.13;;;40.70;28.10;;;;;;4992185;28;20403;-72
2022/10/07 12:26:50;;;;;;;5.77;2.10;;;40.90;28.30;;;;;;4993801;28;20806;-73
2022/10/07 12:29:23;;;;;;;4.00;2.37;;;40.80;28.00;;;;;;4993528;28;20487;-72
2022/10/07 12:31:49;;;;;;;9.17;2.23;;;40.60;28.30;;;;;;4993612;28;20169;-71
2022/10/07 12:34:35;;;;;;;6.20;1.70;;;39.70;28.10;;;;;;4993325;28;20912;-72
2022/10/07 12:37:44;;;;;;;4.60;2.10;;;38.80;28.90;;;;;;4992044;28;20510;-73
2022/10/07 12:40:23;;;;;;;3.87;1.43;;;38.30;29.20;;;;;;4993193;28;20415;-71
2022/10/07 12:43:07;;;;;;;8.63;2.40;;;38.90;29.60;;;;;;4992851;28;20422;-71
2022/10/07 12:45:35;;;;;;;3.57;2.13;;;39.30;29.30;;;;;;4992735;28;20407;-71
2022/10/07 12:48:02;;;;;;;4.23;1.70;;;40.00;29.30;;;;;;4993020;28;20835;-72
2022/10/07 12:50:30;;;;;;;4.23;1.80;;;40.30;28.50;;;;;;4992975;28;20515;-71
2022/10/07 12:52:59;;;;;;;5.90;1.90;;;40.20;28.90;;;;;;4992982;28;20383;-72
2022/10/07 12:55:35;;;;;;;1.80;1.40;;;40.70;28.70;;;;;;4993285;28;20387;-71
2022/10/07 13:01:44;;;;;;;4.30;2.03;;;40.90;28.50;;;;;;4992874;28;20425;-72
2022/10/07 13:04:17;;;;;;;4.10;1.63;;;41.40;28.30;;;;;;4987295;28;20840;-71
2022/10/07 13:07:16;;;;;;;3.67;2.17;;;42.00;28.60;;;;;;4991525;28;20436;-71
2022/10/07 13:09:51;;;;;;;1.93;1.47;;;42.40;27.50;;;;;;4992796;28;20435;-71
2022/10/07 13:12:39;;;;;;;5.13;1.47;;;42.30;28.00;;;;;;4991475;28;20473;-72
2022/10/07 13:15:42;;;;;;;2.67;1.83;;;42.50;28.00;;;;;;4992386;28;20385;-71
2022/10/07 13:18:19;;;;;;;2.83;2.03;;;42.40;27.70;;;;;;4992743;28;20424;-72
2022/10/07 13:21:15;;;;;;;2.70;1.90;;;42.50;28.00;;;;;;4992685;28;20398;-72
2022/10/07 13:23:49;;;;;;;3.50;2.13;;;42.70;27.90;;;;;;4992554;28;20447;-72
2022/10/07 13:26:14;;;;;;;2.50;1.53;;;42.40;27.20;;;;;;4992306;28;20396;-71
2022/10/07 13:28:52;;;;;;;5.17;2.30;;;41.90;28.20;;;;;;4992553;28;20375;-71
2022/10/07 13:31:29;;;;;;;3.10;2.10;;;41.70;27.60;;;;;;4991267;28;20544;-71